Terminal Aerodrome Forecast
Issued by NWS

Home | Current Version | Previous Version | Graphics & Text | Print | Product List | Glossary On
Versions: 1 2 3 4 5 6 7 8 9 10 11 12 13 14 15 16 17 18 19 20
000
FTUS43 KBIS 161126
TAFDIK
TAF
KDIK 161126Z 1612/1712 23010KT P6SM SKC
     FM161600 25017G25KT P6SM SCT250
     FM162300 26013KT P6SM BKN100
     FM170700 28008KT P6SM BKN050
     FM171000 31011KT P6SM VCSH BKN015=

USA.gov is the U.S. government's official web portal to all federal, state and local government web resources and services.